sensor_id;sensor_type;location;lat;lon;timestamp;P1;durP1;ratioP1;P2;durP2;ratioP2
14903;SDS011;7543;53.148;8.234;2024-03-25T00:02:28;2.70;;;1.17;;
14903;SDS011;7543;53.148;8.234;2024-03-25T00:04:55;4.53;;;1.60;;
14903;SDS011;7543;53.148;8.234;2024-03-25T00:07:23;8.47;;;1.53;;
14903;SDS011;7543;53.148;8.234;2024-03-25T00:09:51;6.83;;;1.57;;
14903;SDS011;7543;53.148;8.234;2024-03-25T00:12:21;6.37;;;1.60;;
14903;SDS011;7543;53.148;8.234;2024-03-25T00:14:50;4.60;;;1.57;;
14903;SDS011;7543;53.148;8.234;2024-03-25T00:17:18;6.23;;;1.30;;
14903;SDS011;7543;53.148;8.234;2024-03-25T00:19:46;3.33;;;1.37;;
14903;SDS011;7543;53.148;8.234;2024-03-25T00:22:17;3.47;;;1.17;;
14903;SDS011;7543;53.148;8.234;2024-03-25T00:24:46;2.30;;;1.23;;
14903;SDS011;7543;53.148;8.234;2024-03-25T00:27:14;2.33;;;1.40;;
14903;SDS011;7543;53.148;8.234;2024-03-25T00:29:42;2.90;;;1.30;;
14903;SDS011;7543;53.148;8.234;2024-03-25T00:32:12;2.73;;;1.07;;
14903;SDS011;7543;53.148;8.234;2024-03-25T00:34:39;4.50;;;1.13;;
14903;SDS011;7543;53.148;8.234;2024-03-25T00:37:07;5.60;;;1.27;;
14903;SDS011;7543;53.148;8.234;2024-03-25T00:39:35;3.77;;;1.50;;
14903;SDS011;7543;53.148;8.234;2024-03-25T00:42:04;3.57;;;1.30;;
14903;SDS011;7543;53.148;8.234;2024-03-25T00:44:31;4.73;;;1.37;;
14903;SDS011;7543;53.148;8.234;2024-03-25T00:46:59;2.63;;;1.03;;
14903;SDS011;7543;53.148;8.234;2024-03-25T00:49:28;4.17;;;1.50;;
14903;SDS011;7543;53.148;8.234;2024-03-25T00:51:56;1.73;;;1.10;;
14903;SDS011;7543;53.148;8.234;2024-03-25T00:54:24;2.50;;;1.10;;
14903;SDS011;7543;53.148;8.234;2024-03-25T00:56:52;5.17;;;1.50;;
14903;SDS011;7543;53.148;8.234;2024-03-25T00:59:20;4.70;;;1.30;;
14903;SDS011;7543;53.148;8.234;2024-03-25T01:01:48;6.27;;;1.60;;
14903;SDS011;7543;53.148;8.234;2024-03-25T01:04:15;4.93;;;1.57;;
14903;SDS011;7543;53.148;8.234;2024-03-25T01:06:46;3.10;;;1.37;;
14903;SDS011;7543;53.148;8.234;2024-03-25T01:09:13;3.70;;;1.50;;
14903;SDS011;7543;53.148;8.234;2024-03-25T01:11:42;2.50;;;1.17;;
14903;SDS011;7543;53.148;8.234;2024-03-25T01:14:10;3.53;;;1.20;;
14903;SDS011;7543;53.148;8.234;2024-03-25T01:16:38;3.30;;;1.10;;
14903;SDS011;7543;53.148;8.234;2024-03-25T01:19:05;3.37;;;1.20;;
14903;SDS011;7543;53.148;8.234;2024-03-25T01:21:33;3.10;;;1.00;;
14903;SDS011;7543;53.148;8.234;2024-03-25T01:24:03;2.87;;;1.20;;
14903;SDS011;7543;53.148;8.234;2024-03-25T01:26:31;2.00;;;1.03;;
14903;SDS011;7543;53.148;8.234;2024-03-25T01:28:59;2.10;;;0.90;;
14903;SDS011;7543;53.148;8.234;2024-03-25T01:31:27;2.33;;;1.10;;
14903;SDS011;7543;53.148;8.234;2024-03-25T01:33:54;2.17;;;0.93;;
14903;SDS011;7543;53.148;8.234;2024-03-25T01:36:22;4.97;;;1.40;;
14903;SDS011;7543;53.148;8.234;2024-03-25T01:38:50;4.67;;;1.10;;
14903;SDS011;7543;53.148;8.234;2024-03-25T01:41:21;3.13;;;1.00;;
14903;SDS011;7543;53.148;8.234;2024-03-25T01:43:49;4.00;;;1.00;;
14903;SDS011;7543;53.148;8.234;2024-03-25T01:46:18;3.60;;;1.10;;
14903;SDS011;7543;53.148;8.234;2024-03-25T01:48:45;2.67;;;0.83;;
14903;SDS011;7543;53.148;8.234;2024-03-25T01:51:16;2.37;;;1.03;;
14903;SDS011;7543;53.148;8.234;2024-03-25T01:53:44;2.30;;;0.93;;
14903;SDS011;7543;53.148;8.234;2024-03-25T01:56:13;4.93;;;1.20;;
14903;SDS011;7543;53.148;8.234;2024-03-25T01:58:42;3.57;;;1.20;;
14903;SDS011;7543;53.148;8.234;2024-03-25T02:01:11;3.73;;;1.23;;
14903;SDS011;7543;53.148;8.234;2024-03-25T02:03:40;2.67;;;1.00;;
14903;SDS011;7543;53.148;8.234;2024-03-25T02:06:11;2.93;;;1.10;;
14903;SDS011;7543;53.148;8.234;2024-03-25T02:08:40;1.93;;;0.73;;
14903;SDS011;7543;53.148;8.234;2024-03-25T02:11:09;2.17;;;0.87;;
14903;SDS011;7543;53.148;8.234;2024-03-25T02:13:37;2.67;;;1.43;;
14903;SDS011;7543;53.148;8.234;2024-03-25T02:16:08;3.73;;;0.93;;
14903;SDS011;7543;53.148;8.234;2024-03-25T02:18:35;5.60;;;1.37;;
14903;SDS011;7543;53.148;8.234;2024-03-25T02:21:04;2.80;;;0.80;;
14903;SDS011;7543;53.148;8.234;2024-03-25T02:23:32;4.00;;;1.10;;
14903;SDS011;7543;53.148;8.234;2024-03-25T02:26:03;3.70;;;1.13;;
14903;SDS011;7543;53.148;8.234;2024-03-25T02:28:30;3.93;;;1.00;;
14903;SDS011;7543;53.148;8.234;2024-03-25T02:30:59;4.70;;;1.10;;
14903;SDS011;7543;53.148;8.234;2024-03-25T02:33:26;3.83;;;1.20;;
14903;SDS011;7543;53.148;8.234;2024-03-25T02:35:54;5.67;;;1.50;;
14903;SDS011;7543;53.148;8.234;2024-03-25T02:38:22;2.53;;;1.10;;
14903;SDS011;7543;53.148;8.234;2024-03-25T02:40:50;6.43;;;1.50;;
14903;SDS011;7543;53.148;8.234;2024-03-25T02:43:19;5.77;;;1.13;;
14903;SDS011;7543;53.148;8.234;2024-03-25T02:45:48;3.50;;;0.90;;
14903;SDS011;7543;53.148;8.234;2024-03-25T02:48:15;1.80;;;1.03;;
14903;SDS011;7543;53.148;8.234;2024-03-25T02:50:44;6.67;;;1.73;;
14903;SDS011;7543;53.148;8.234;2024-03-25T02:53:11;3.27;;;1.20;;
14903;SDS011;7543;53.148;8.234;2024-03-25T02:55:39;4.43;;;1.17;;
14903;SDS011;7543;53.148;8.234;2024-03-25T02:58:06;2.87;;;1.17;;
14903;SDS011;7543;53.148;8.234;2024-03-25T03:00:36;2.70;;;1.27;;
14903;SDS011;7543;53.148;8.234;2024-03-25T03:03:04;7.30;;;1.60;;
14903;SDS011;7543;53.148;8.234;2024-03-25T03:05:32;5.30;;;1.13;;
14903;SDS011;7543;53.148;8.234;2024-03-25T03:07:59;4.97;;;1.67;;
14903;SDS011;7543;53.148;8.234;2024-03-25T03:10:28;4.27;;;1.07;;
14903;SDS011;7543;53.148;8.234;2024-03-25T03:12:55;5.23;;;0.93;;
14903;SDS011;7543;53.148;8.234;2024-03-25T03:15:23;2.77;;;1.10;;
14903;SDS011;7543;53.148;8.234;2024-03-25T03:17:52;10.47;;;1.57;;
14903;SDS011;7543;53.148;8.234;2024-03-25T03:20:20;4.40;;;1.10;;
14903;SDS011;7543;53.148;8.234;2024-03-25T03:22:48;7.50;;;1.80;;
14903;SDS011;7543;53.148;8.234;2024-03-25T03:25:16;5.30;;;1.03;;
14903;SDS011;7543;53.148;8.234;2024-03-25T03:27:43;7.43;;;1.73;;
14903;SDS011;7543;53.148;8.234;2024-03-25T03:30:12;2.50;;;1.07;;
14903;SDS011;7543;53.148;8.234;2024-03-25T03:32:39;5.63;;;1.20;;
14903;SDS011;7543;53.148;8.234;2024-03-25T03:35:09;5.93;;;1.43;;
14903;SDS011;7543;53.148;8.234;2024-03-25T03:37:36;5.17;;;0.87;;
14903;SDS011;7543;53.148;8.234;2024-03-25T03:40:05;11.13;;;1.70;;
14903;SDS011;7543;53.148;8.234;2024-03-25T03:42:33;5.50;;;1.37;;
14903;SDS011;7543;53.148;8.234;2024-03-25T03:45:01;6.50;;;1.23;;
14903;SDS011;7543;53.148;8.234;2024-03-25T03:47:29;7.83;;;1.17;;
14903;SDS011;7543;53.148;8.234;2024-03-25T03:49:57;12.17;;;1.50;;
14903;SDS011;7543;53.148;8.234;2024-03-25T03:52:26;6.70;;;1.30;;
14903;SDS011;7543;53.148;8.234;2024-03-25T03:54:54;4.87;;;1.67;;
14903;SDS011;7543;53.148;8.234;2024-03-25T03:57:22;6.30;;;1.33;;
14903;SDS011;7543;53.148;8.234;2024-03-25T03:59:50;2.33;;;1.20;;
14903;SDS011;7543;53.148;8.234;2024-03-25T04:02:17;3.70;;;1.20;;
14903;SDS011;7543;53.148;8.234;2024-03-25T04:04:46;4.83;;;1.10;;
14903;SDS011;7543;53.148;8.234;2024-03-25T04:07:13;3.10;;;1.23;;
14903;SDS011;7543;53.148;8.234;2024-03-25T04:09:43;6.40;;;1.53;;
14903;SDS011;7543;53.148;8.234;2024-03-25T04:12:10;4.97;;;1.67;;
14903;SDS011;7543;53.148;8.234;2024-03-25T04:14:39;5.47;;;1.17;;
14903;SDS011;7543;53.148;8.234;2024-03-25T04:17:06;6.87;;;1.13;;
14903;SDS011;7543;53.148;8.234;2024-03-25T04:19:34;3.87;;;1.37;;
14903;SDS011;7543;53.148;8.234;2024-03-25T04:22:02;3.90;;;1.33;;
14903;SDS011;7543;53.148;8.234;2024-03-25T04:24:30;6.67;;;1.70;;
14903;SDS011;7543;53.148;8.234;2024-03-25T04:26:59;6.90;;;1.53;;
14903;SDS011;7543;53.148;8.234;2024-03-25T04:29:27;8.77;;;1.73;;
14903;SDS011;7543;53.148;8.234;2024-03-25T04:31:57;8.17;;;1.50;;
14903;SDS011;7543;53.148;8.234;2024-03-25T04:34:25;3.60;;;1.27;;
14903;SDS011;7543;53.148;8.234;2024-03-25T04:36:53;4.40;;;1.70;;
14903;SDS011;7543;53.148;8.234;2024-03-25T04:39:21;7.40;;;1.27;;
14903;SDS011;7543;53.148;8.234;2024-03-25T04:41:49;4.30;;;1.60;;
14903;SDS011;7543;53.148;8.234;2024-03-25T04:44:17;4.97;;;1.47;;
14903;SDS011;7543;53.148;8.234;2024-03-25T04:46:45;5.60;;;1.60;;
14903;SDS011;7543;53.148;8.234;2024-03-25T04:49:12;3.93;;;1.20;;
14903;SDS011;7543;53.148;8.234;2024-03-25T04:51:40;5.20;;;1.27;;
14903;SDS011;7543;53.148;8.234;2024-03-25T04:54:07;4.53;;;1.73;;
14903;SDS011;7543;53.148;8.234;2024-03-25T04:56:34;4.17;;;1.60;;
14903;SDS011;7543;53.148;8.234;2024-03-25T04:59:02;4.50;;;1.40;;
14903;SDS011;7543;53.148;8.234;2024-03-25T05:01:30;3.67;;;1.37;;
14903;SDS011;7543;53.148;8.234;2024-03-25T05:03:58;6.73;;;1.50;;
14903;SDS011;7543;53.148;8.234;2024-03-25T05:06:25;3.37;;;1.90;;
14903;SDS011;7543;53.148;8.234;2024-03-25T05:08:54;6.53;;;1.87;;
14903;SDS011;7543;53.148;8.234;2024-03-25T05:11:22;6.10;;;1.47;;
14903;SDS011;7543;53.148;8.234;2024-03-25T05:13:49;5.53;;;1.57;;
14903;SDS011;7543;53.148;8.234;2024-03-25T05:16:16;10.73;;;1.97;;
14903;SDS011;7543;53.148;8.234;2024-03-25T05:18:45;4.80;;;1.60;;
14903;SDS011;7543;53.148;8.234;2024-03-25T05:21:12;5.90;;;1.37;;
14903;SDS011;7543;53.148;8.234;2024-03-25T05:23:40;3.57;;;1.57;;
14903;SDS011;7543;53.148;8.234;2024-03-25T05:26:08;5.47;;;1.20;;
14903;SDS011;7543;53.148;8.234;2024-03-25T05:28:35;3.60;;;1.67;;
14903;SDS011;7543;53.148;8.234;2024-03-25T05:31:06;5.50;;;1.70;;
14903;SDS011;7543;53.148;8.234;2024-03-25T05:33:33;7.27;;;2.10;;
14903;SDS011;7543;53.148;8.234;2024-03-25T05:36:03;7.80;;;1.63;;
14903;SDS011;7543;53.148;8.234;2024-03-25T05:38:30;6.23;;;1.87;;
14903;SDS011;7543;53.148;8.234;2024-03-25T05:40:57;4.07;;;1.50;;
14903;SDS011;7543;53.148;8.234;2024-03-25T05:43:25;9.37;;;2.13;;
14903;SDS011;7543;53.148;8.234;2024-03-25T05:45:52;9.13;;;2.03;;
14903;SDS011;7543;53.148;8.234;2024-03-25T05:48:20;6.87;;;1.37;;
14903;SDS011;7543;53.148;8.234;2024-03-25T05:50:56;8.30;;;1.63;;
14903;SDS011;7543;53.148;8.234;2024-03-25T05:53:26;6.13;;;1.67;;
14903;SDS011;7543;53.148;8.234;2024-03-25T05:55:53;5.23;;;1.57;;
14903;SDS011;7543;53.148;8.234;2024-03-25T05:58:21;7.83;;;2.00;;
14903;SDS011;7543;53.148;8.234;2024-03-25T06:00:48;6.90;;;1.97;;
14903;SDS011;7543;53.148;8.234;2024-03-25T06:03:16;11.50;;;2.00;;
14903;SDS011;7543;53.148;8.234;2024-03-25T06:05:44;8.37;;;1.87;;
14903;SDS011;7543;53.148;8.234;2024-03-25T06:08:11;11.50;;;1.90;;
14903;SDS011;7543;53.148;8.234;2024-03-25T06:10:46;9.33;;;2.53;;
14903;SDS011;7543;53.148;8.234;2024-03-25T06:13:13;8.93;;;1.70;;
14903;SDS011;7543;53.148;8.234;2024-03-25T06:15:40;14.23;;;1.80;;
14903;SDS011;7543;53.148;8.234;2024-03-25T06:18:08;6.77;;;1.60;;
14903;SDS011;7543;53.148;8.234;2024-03-25T06:20:35;8.73;;;1.40;;
14903;SDS011;7543;53.148;8.234;2024-03-25T06:23:03;5.97;;;1.43;;
14903;SDS011;7543;53.148;8.234;2024-03-25T06:25:31;6.00;;;1.40;;
14903;SDS011;7543;53.148;8.234;2024-03-25T06:27:59;6.00;;;1.53;;
14903;SDS011;7543;53.148;8.234;2024-03-25T06:30:27;7.87;;;1.73;;
14903;SDS011;7543;53.148;8.234;2024-03-25T06:33:12;7.57;;;1.60;;
14903;SDS011;7543;53.148;8.234;2024-03-25T06:35:58;6.80;;;1.67;;
14903;SDS011;7543;53.148;8.234;2024-03-25T06:38:25;5.47;;;1.57;;
14903;SDS011;7543;53.148;8.234;2024-03-25T06:40:53;12.23;;;1.70;;
14903;SDS011;7543;53.148;8.234;2024-03-25T06:43:22;7.80;;;1.67;;
14903;SDS011;7543;53.148;8.234;2024-03-25T06:45:49;8.33;;;1.80;;
14903;SDS011;7543;53.148;8.234;2024-03-25T06:48:16;6.40;;;1.90;;
14903;SDS011;7543;53.148;8.234;2024-03-25T06:50:51;7.43;;;1.40;;
14903;SDS011;7543;53.148;8.234;2024-03-25T06:53:19;6.50;;;1.60;;
14903;SDS011;7543;53.148;8.234;2024-03-25T06:55:53;4.50;;;1.40;;
14903;SDS011;7543;53.148;8.234;2024-03-25T06:58:23;5.60;;;1.70;;
14903;SDS011;7543;53.148;8.234;2024-03-25T07:00:51;8.53;;;1.60;;
14903;SDS011;7543;53.148;8.234;2024-03-25T07:03:19;8.47;;;1.80;;
14903;SDS011;7543;53.148;8.234;2024-03-25T07:05:48;12.60;;;2.20;;
14903;SDS011;7543;53.148;8.234;2024-03-25T07:08:16;7.43;;;1.20;;
14903;SDS011;7543;53.148;8.234;2024-03-25T07:10:44;7.00;;;1.50;;
14903;SDS011;7543;53.148;8.234;2024-03-25T07:13:11;4.30;;;1.50;;
14903;SDS011;7543;53.148;8.234;2024-03-25T07:15:40;7.67;;;1.80;;
14903;SDS011;7543;53.148;8.234;2024-03-25T07:18:09;4.50;;;1.37;;
14903;SDS011;7543;53.148;8.234;2024-03-25T07:20:37;12.17;;;1.87;;
14903;SDS011;7543;53.148;8.234;2024-03-25T07:23:04;11.80;;;1.97;;
14903;SDS011;7543;53.148;8.234;2024-03-25T07:25:32;5.97;;;1.47;;
14903;SDS011;7543;53.148;8.234;2024-03-25T07:27:59;9.50;;;2.10;;
14903;SDS011;7543;53.148;8.234;2024-03-25T07:30:27;6.70;;;1.60;;
14903;SDS011;7543;53.148;8.234;2024-03-25T07:32:56;4.27;;;1.40;;
14903;SDS011;7543;53.148;8.234;2024-03-25T07:35:23;8.37;;;1.87;;
14903;SDS011;7543;53.148;8.234;2024-03-25T07:37:51;5.13;;;1.60;;
14903;SDS011;7543;53.148;8.234;2024-03-25T07:40:19;8.87;;;2.23;;
14903;SDS011;7543;53.148;8.234;2024-03-25T07:42:46;5.80;;;1.77;;
14903;SDS011;7543;53.148;8.234;2024-03-25T07:45:14;6.97;;;1.60;;
14903;SDS011;7543;53.148;8.234;2024-03-25T07:47:41;3.43;;;1.20;;
14903;SDS011;7543;53.148;8.234;2024-03-25T07:50:11;10.53;;;1.37;;
14903;SDS011;7543;53.148;8.234;2024-03-25T07:52:38;6.37;;;1.27;;
14903;SDS011;7543;53.148;8.234;2024-03-25T07:55:07;2.60;;;1.13;;
14903;SDS011;7543;53.148;8.234;2024-03-25T07:57:35;6.17;;;1.20;;
14903;SDS011;7543;53.148;8.234;2024-03-25T08:00:02;6.70;;;1.70;;
14903;SDS011;7543;53.148;8.234;2024-03-25T08:02:39;3.80;;;1.27;;
14903;SDS011;7543;53.148;8.234;2024-03-25T08:05:06;5.03;;;1.23;;
14903;SDS011;7543;53.148;8.234;2024-03-25T08:07:35;2.53;;;1.10;;
14903;SDS011;7543;53.148;8.234;2024-03-25T08:10:02;5.67;;;1.50;;
14903;SDS011;7543;53.148;8.234;2024-03-25T08:12:30;4.77;;;1.33;;
14903;SDS011;7543;53.148;8.234;2024-03-25T08:14:57;3.47;;;0.83;;
14903;SDS011;7543;53.148;8.234;2024-03-25T08:17:25;5.90;;;1.47;;
14903;SDS011;7543;53.148;8.234;2024-03-25T08:19:52;5.30;;;1.50;;
14903;SDS011;7543;53.148;8.234;2024-03-25T08:22:19;3.47;;;0.87;;
14903;SDS011;7543;53.148;8.234;2024-03-25T08:24:48;4.67;;;1.27;;
14903;SDS011;7543;53.148;8.234;2024-03-25T08:27:16;7.50;;;1.27;;
14903;SDS011;7543;53.148;8.234;2024-03-25T08:29:44;5.00;;;1.03;;
14903;SDS011;7543;53.148;8.234;2024-03-25T08:32:13;4.40;;;1.47;;
14903;SDS011;7543;53.148;8.234;2024-03-25T08:34:40;5.63;;;1.33;;
14903;SDS011;7543;53.148;8.234;2024-03-25T08:37:08;7.07;;;1.70;;
14903;SDS011;7543;53.148;8.234;2024-03-25T08:39:35;4.13;;;0.90;;
14903;SDS011;7543;53.148;8.234;2024-03-25T08:42:04;4.33;;;1.10;;
14903;SDS011;7543;53.148;8.234;2024-03-25T08:44:31;9.70;;;1.33;;
14903;SDS011;7543;53.148;8.234;2024-03-25T08:46:59;5.73;;;1.40;;
14903;SDS011;7543;53.148;8.234;2024-03-25T08:49:26;5.97;;;1.30;;
14903;SDS011;7543;53.148;8.234;2024-03-25T08:51:53;4.17;;;1.20;;
14903;SDS011;7543;53.148;8.234;2024-03-25T08:54:21;5.97;;;1.37;;
14903;SDS011;7543;53.148;8.234;2024-03-25T08:56:48;3.93;;;1.40;;
14903;SDS011;7543;53.148;8.234;2024-03-25T08:59:17;13.30;;;1.87;;
14903;SDS011;7543;53.148;8.234;2024-03-25T09:01:44;6.03;;;1.00;;
14903;SDS011;7543;53.148;8.234;2024-03-25T09:04:12;3.30;;;1.00;;
14903;SDS011;7543;53.148;8.234;2024-03-25T09:06:39;8.27;;;1.47;;
14903;SDS011;7543;53.148;8.234;2024-03-25T09:09:06;4.33;;;1.67;;
14903;SDS011;7543;53.148;8.234;2024-03-25T09:11:52;4.17;;;1.40;;
14903;SDS011;7543;53.148;8.234;2024-03-25T09:14:21;5.07;;;1.17;;
14903;SDS011;7543;53.148;8.234;2024-03-25T09:16:48;7.33;;;1.40;;
14903;SDS011;7543;53.148;8.234;2024-03-25T09:19:15;3.83;;;1.07;;
14903;SDS011;7543;53.148;8.234;2024-03-25T09:21:43;5.37;;;1.00;;
14903;SDS011;7543;53.148;8.234;2024-03-25T09:24:10;5.67;;;1.50;;
14903;SDS011;7543;53.148;8.234;2024-03-25T09:26:37;4.93;;;1.27;;
14903;SDS011;7543;53.148;8.234;2024-03-25T09:29:05;5.63;;;1.30;;
14903;SDS011;7543;53.148;8.234;2024-03-25T09:31:34;2.03;;;0.80;;
14903;SDS011;7543;53.148;8.234;2024-03-25T09:34:01;3.97;;;1.10;;
14903;SDS011;7543;53.148;8.234;2024-03-25T09:36:28;6.23;;;1.03;;
14903;SDS011;7543;53.148;8.234;2024-03-25T09:38:56;5.23;;;1.17;;
14903;SDS011;7543;53.148;8.234;2024-03-25T09:41:23;4.30;;;1.23;;
14903;SDS011;7543;53.148;8.234;2024-03-25T09:43:52;10.80;;;1.20;;
14903;SDS011;7543;53.148;8.234;2024-03-25T09:46:21;3.77;;;1.40;;
14903;SDS011;7543;53.148;8.234;2024-03-25T09:48:52;5.43;;;1.20;;
14903;SDS011;7543;53.148;8.234;2024-03-25T09:51:20;4.17;;;1.10;;
14903;SDS011;7543;53.148;8.234;2024-03-25T09:53:47;11.37;;;2.07;;
14903;SDS011;7543;53.148;8.234;2024-03-25T09:56:15;5.53;;;1.10;;
14903;SDS011;7543;53.148;8.234;2024-03-25T09:58:44;2.77;;;0.90;;
14903;SDS011;7543;53.148;8.234;2024-03-25T10:01:11;2.43;;;0.63;;
14903;SDS011;7543;53.148;8.234;2024-03-25T10:03:39;3.70;;;1.17;;
14903;SDS011;7543;53.148;8.234;2024-03-25T10:06:08;3.57;;;1.20;;
14903;SDS011;7543;53.148;8.234;2024-03-25T10:08:35;4.33;;;0.90;;
14903;SDS011;7543;53.148;8.234;2024-03-25T10:11:03;5.97;;;1.07;;
14903;SDS011;7543;53.148;8.234;2024-03-25T10:13:30;5.13;;;1.10;;
14903;SDS011;7543;53.148;8.234;2024-03-25T10:15:57;2.87;;;0.60;;
14903;SDS011;7543;53.148;8.234;2024-03-25T10:18:25;1.97;;;0.70;;
14903;SDS011;7543;53.148;8.234;2024-03-25T10:20:52;6.80;;;1.20;;
14903;SDS011;7543;53.148;8.234;2024-03-25T10:23:22;3.27;;;1.00;;
14903;SDS011;7543;53.148;8.234;2024-03-25T10:25:51;2.37;;;0.87;;
14903;SDS011;7543;53.148;8.234;2024-03-25T10:28:19;4.87;;;1.13;;
14903;SDS011;7543;53.148;8.234;2024-03-25T10:30:46;4.23;;;1.30;;
14903;SDS011;7543;53.148;8.234;2024-03-25T10:33:14;4.57;;;0.80;;
14903;SDS011;7543;53.148;8.234;2024-03-25T10:35:41;4.30;;;1.00;;
14903;SDS011;7543;53.148;8.234;2024-03-25T10:38:12;6.50;;;1.10;;
14903;SDS011;7543;53.148;8.234;2024-03-25T10:40:42;5.70;;;1.17;;
14903;SDS011;7543;53.148;8.234;2024-03-25T10:43:11;4.10;;;0.87;;
14903;SDS011;7543;53.148;8.234;2024-03-25T10:45:40;1.87;;;0.80;;
14903;SDS011;7543;53.148;8.234;2024-03-25T10:48:09;1.33;;;0.70;;
14903;SDS011;7543;53.148;8.234;2024-03-25T10:50:40;7.17;;;1.17;;
14903;SDS011;7543;53.148;8.234;2024-03-25T10:53:07;3.63;;;1.00;;
14903;SDS011;7543;53.148;8.234;2024-03-25T10:55:35;6.63;;;0.93;;
14903;SDS011;7543;53.148;8.234;2024-03-25T10:58:05;3.73;;;1.00;;
14903;SDS011;7543;53.148;8.234;2024-03-25T11:00:32;4.13;;;1.07;;
14903;SDS011;7543;53.148;8.234;2024-03-25T11:03:00;2.77;;;1.03;;
14903;SDS011;7543;53.148;8.234;2024-03-25T11:05:28;3.57;;;0.97;;
14903;SDS011;7543;53.148;8.234;2024-03-25T11:07:56;5.07;;;0.90;;
14903;SDS011;7543;53.148;8.234;2024-03-25T11:10:28;2.60;;;1.00;;
14903;SDS011;7543;53.148;8.234;2024-03-25T11:12:56;1.43;;;1.00;;
14903;SDS011;7543;53.148;8.234;2024-03-25T11:15:35;2.73;;;1.00;;
14903;SDS011;7543;53.148;8.234;2024-03-25T11:18:03;5.33;;;0.80;;
14903;SDS011;7543;53.148;8.234;2024-03-25T11:20:30;4.17;;;0.90;;
14903;SDS011;7543;53.148;8.234;2024-03-25T11:22:57;1.90;;;0.80;;
14903;SDS011;7543;53.148;8.234;2024-03-25T11:25:25;4.13;;;1.20;;
14903;SDS011;7543;53.148;8.234;2024-03-25T11:27:52;2.23;;;0.80;;
14903;SDS011;7543;53.148;8.234;2024-03-25T11:30:20;4.57;;;1.13;;
14903;SDS011;7543;53.148;8.234;2024-03-25T11:32:51;4.90;;;1.10;;
14903;SDS011;7543;53.148;8.234;2024-03-25T11:35:18;5.13;;;1.10;;
14903;SDS011;7543;53.148;8.234;2024-03-25T11:37:46;3.70;;;1.00;;
14903;SDS011;7543;53.148;8.234;2024-03-25T11:40:14;2.30;;;1.00;;
14903;SDS011;7543;53.148;8.234;2024-03-25T11:42:41;5.70;;;1.03;;
14903;SDS011;7543;53.148;8.234;2024-03-25T11:45:13;5.73;;;1.70;;
14903;SDS011;7543;53.148;8.234;2024-03-25T11:47:42;3.67;;;1.23;;
14903;SDS011;7543;53.148;8.234;2024-03-25T11:50:12;3.13;;;0.90;;
14903;SDS011;7543;53.148;8.234;2024-03-25T11:52:40;2.57;;;0.80;;
14903;SDS011;7543;53.148;8.234;2024-03-25T11:55:07;2.57;;;0.83;;
14903;SDS011;7543;53.148;8.234;2024-03-25T11:57:35;2.80;;;1.03;;
14903;SDS011;7543;53.148;8.234;2024-03-25T12:00:03;5.23;;;1.00;;
14903;SDS011;7543;53.148;8.234;2024-03-25T12:02:42;4.63;;;1.30;;
14903;SDS011;7543;53.148;8.234;2024-03-25T12:05:12;4.10;;;0.90;;
14903;SDS011;7543;53.148;8.234;2024-03-25T12:07:39;5.93;;;1.10;;
14903;SDS011;7543;53.148;8.234;2024-03-25T12:10:07;1.67;;;0.83;;
14903;SDS011;7543;53.148;8.234;2024-03-25T12:12:54;5.17;;;1.23;;
14903;SDS011;7543;53.148;8.234;2024-03-25T12:15:22;4.23;;;1.20;;
14903;SDS011;7543;53.148;8.234;2024-03-25T12:17:50;3.50;;;1.10;;
14903;SDS011;7543;53.148;8.234;2024-03-25T12:20:19;2.63;;;0.97;;
14903;SDS011;7543;53.148;8.234;2024-03-25T12:22:48;5.50;;;0.93;;
14903;SDS011;7543;53.148;8.234;2024-03-25T12:25:15;4.03;;;0.80;;
14903;SDS011;7543;53.148;8.234;2024-03-25T12:27:45;5.80;;;1.00;;
14903;SDS011;7543;53.148;8.234;2024-03-25T12:30:13;2.33;;;1.00;;
14903;SDS011;7543;53.148;8.234;2024-03-25T12:32:41;1.20;;;0.70;;
14903;SDS011;7543;53.148;8.234;2024-03-25T12:35:09;2.53;;;0.90;;
14903;SDS011;7543;53.148;8.234;2024-03-25T12:37:40;2.47;;;0.80;;
14903;SDS011;7543;53.148;8.234;2024-03-25T12:40:09;3.73;;;1.10;;
14903;SDS011;7543;53.148;8.234;2024-03-25T12:42:37;4.47;;;1.23;;
14903;SDS011;7543;53.148;8.234;2024-03-25T12:45:05;3.40;;;1.07;;
14903;SDS011;7543;53.148;8.234;2024-03-25T12:47:33;1.90;;;0.80;;
14903;SDS011;7543;53.148;8.234;2024-03-25T12:50:00;4.73;;;1.13;;
14903;SDS011;7543;53.148;8.234;2024-03-25T12:52:28;1.97;;;0.93;;
14903;SDS011;7543;53.148;8.234;2024-03-25T12:54:56;3.37;;;1.10;;
14903;SDS011;7543;53.148;8.234;2024-03-25T12:57:24;3.33;;;1.30;;
14903;SDS011;7543;53.148;8.234;2024-03-25T12:59:51;4.00;;;1.40;;
14903;SDS011;7543;53.148;8.234;2024-03-25T13:02:18;2.07;;;1.00;;
14903;SDS011;7543;53.148;8.234;2024-03-25T13:04:46;2.93;;;1.10;;
14903;SDS011;7543;53.148;8.234;2024-03-25T13:07:13;1.57;;;1.10;;
14903;SDS011;7543;53.148;8.234;2024-03-25T13:09:41;4.30;;;1.20;;
14903;SDS011;7543;53.148;8.234;2024-03-25T13:12:10;3.90;;;0.77;;
14903;SDS011;7543;53.148;8.234;2024-03-25T13:14:38;3.50;;;0.90;;
14903;SDS011;7543;53.148;8.234;2024-03-25T13:17:05;3.63;;;0.80;;
14903;SDS011;7543;53.148;8.234;2024-03-25T13:19:33;3.17;;;1.00;;
14903;SDS011;7543;53.148;8.234;2024-03-25T13:22:00;1.53;;;1.00;;
14903;SDS011;7543;53.148;8.234;2024-03-25T13:24:27;6.10;;;1.10;;
14903;SDS011;7543;53.148;8.234;2024-03-25T13:26:55;5.57;;;1.07;;
14903;SDS011;7543;53.148;8.234;2024-03-25T13:29:23;3.77;;;1.20;;
14903;SDS011;7543;53.148;8.234;2024-03-25T13:31:51;4.33;;;1.23;;
14903;SDS011;7543;53.148;8.234;2024-03-25T13:34:18;3.73;;;1.13;;
14903;SDS011;7543;53.148;8.234;2024-03-25T13:36:46;5.37;;;1.20;;
14903;SDS011;7543;53.148;8.234;2024-03-25T13:39:13;3.33;;;1.23;;
14903;SDS011;7543;53.148;8.234;2024-03-25T13:41:40;4.87;;;1.20;;
14903;SDS011;7543;53.148;8.234;2024-03-25T13:44:08;5.17;;;1.20;;
14903;SDS011;7543;53.148;8.234;2024-03-25T13:46:36;2.30;;;1.10;;
14903;SDS011;7543;53.148;8.234;2024-03-25T13:49:04;2.27;;;1.03;;
14903;SDS011;7543;53.148;8.234;2024-03-25T13:51:31;6.57;;;1.27;;
14903;SDS011;7543;53.148;8.234;2024-03-25T13:53:58;3.37;;;0.97;;
14903;SDS011;7543;53.148;8.234;2024-03-25T13:56:26;2.80;;;0.87;;
14903;SDS011;7543;53.148;8.234;2024-03-25T13:58:53;3.13;;;1.17;;
14903;SDS011;7543;53.148;8.234;2024-03-25T14:01:20;3.63;;;1.20;;
14903;SDS011;7543;53.148;8.234;2024-03-25T14:03:49;3.33;;;1.07;;
14903;SDS011;7543;53.148;8.234;2024-03-25T14:06:17;2.50;;;0.93;;
14903;SDS011;7543;53.148;8.234;2024-03-25T14:08:44;2.33;;;0.80;;
14903;SDS011;7543;53.148;8.234;2024-03-25T14:11:11;4.47;;;0.90;;
14903;SDS011;7543;53.148;8.234;2024-03-25T14:13:39;3.47;;;0.80;;
14903;SDS011;7543;53.148;8.234;2024-03-25T14:16:06;2.50;;;0.57;;
14903;SDS011;7543;53.148;8.234;2024-03-25T14:18:34;1.07;;;0.50;;
14903;SDS011;7543;53.148;8.234;2024-03-25T14:21:03;3.80;;;0.87;;
14903;SDS011;7543;53.148;8.234;2024-03-25T14:23:30;1.30;;;0.80;;
14903;SDS011;7543;53.148;8.234;2024-03-25T14:25:58;1.93;;;0.60;;
14903;SDS011;7543;53.148;8.234;2024-03-25T14:28:25;1.87;;;0.63;;
14903;SDS011;7543;53.148;8.234;2024-03-25T14:30:52;2.77;;;0.87;;
14903;SDS011;7543;53.148;8.234;2024-03-25T14:33:20;1.37;;;0.70;;
14903;SDS011;7543;53.148;8.234;2024-03-25T14:35:47;4.37;;;0.90;;
14903;SDS011;7543;53.148;8.234;2024-03-25T14:38:16;3.63;;;0.73;;
14903;SDS011;7543;53.148;8.234;2024-03-25T14:40:43;3.10;;;0.80;;
14903;SDS011;7543;53.148;8.234;2024-03-25T14:43:13;4.13;;;0.80;;
14903;SDS011;7543;53.148;8.234;2024-03-25T14:45:40;2.13;;;0.67;;
14903;SDS011;7543;53.148;8.234;2024-03-25T14:48:08;1.07;;;0.70;;
14903;SDS011;7543;53.148;8.234;2024-03-25T14:50:35;1.73;;;0.90;;
14903;SDS011;7543;53.148;8.234;2024-03-25T14:53:03;1.97;;;0.80;;
14903;SDS011;7543;53.148;8.234;2024-03-25T14:55:32;1.40;;;1.00;;
14903;SDS011;7543;53.148;8.234;2024-03-25T14:57:59;4.37;;;1.03;;
14903;SDS011;7543;53.148;8.234;2024-03-25T15:00:26;3.03;;;1.10;;
14903;SDS011;7543;53.148;8.234;2024-03-25T15:02:54;4.93;;;1.00;;
14903;SDS011;7543;53.148;8.234;2024-03-25T15:05:21;3.53;;;0.80;;
14903;SDS011;7543;53.148;8.234;2024-03-25T15:07:48;1.73;;;0.90;;